sensor_id;sensor_type;location;lat;lon;timestamp;temperature;humidity
21762;DHT22;11203;50.870;20.682;2022-09-09T00:00:25;16.10;99.90
21762;DHT22;11203;50.870;20.682;2022-09-09T00:06:08;16.10;99.90
21762;DHT22;11203;50.870;20.682;2022-09-09T00:09:08;16.10;99.90
21762;DHT22;11203;50.870;20.682;2022-09-09T00:12:33;16.00;99.90
21762;DHT22;11203;50.870;20.682;2022-09-09T00:15:07;16.00;99.90
21762;DHT22;11203;50.870;20.682;2022-09-09T00:17:56;15.90;99.90
21762;DHT22;11203;50.870;20.682;2022-09-09T00:23:28;15.90;99.90
21762;DHT22;11203;50.870;20.682;2022-09-09T00:26:06;15.80;99.90
21762;DHT22;11203;50.870;20.682;2022-09-09T00:31:36;15.80;99.90
21762;DHT22;11203;50.870;20.682;2022-09-09T00:34:10;15.80;99.90
21762;DHT22;11203;50.870;20.682;2022-09-09T00:36:42;15.80;99.90
21762;DHT22;11203;50.870;20.682;2022-09-09T00:39:39;15.80;99.90
21762;DHT22;11203;50.870;20.682;2022-09-09T00:42:18;15.80;99.90
21762;DHT22;11203;50.870;20.682;2022-09-09T00:47:46;15.80;99.90
21762;DHT22;11203;50.870;20.682;2022-09-09T00:50:35;15.70;99.90
21762;DHT22;11203;50.870;20.682;2022-09-09T00:53:21;15.80;99.90
21762;DHT22;11203;50.870;20.682;2022-09-09T00:58:37;15.80;99.90
21762;DHT22;11203;50.870;20.682;2022-09-09T01:01:10;15.90;99.90
21762;DHT22;11203;50.870;20.682;2022-09-09T01:03:52;15.90;99.90
21762;DHT22;11203;50.870;20.682;2022-09-09T01:06:37;15.90;99.90
21762;DHT22;11203;50.870;20.682;2022-09-09T01:09:25;15.90;99.90
21762;DHT22;11203;50.870;20.682;2022-09-09T01:27:44;16.20;99.90
21762;DHT22;11203;50.870;20.682;2022-09-09T01:30:14;16.20;99.90
21762;DHT22;11203;50.870;20.682;2022-09-09T01:32:55;16.30;99.90
21762;DHT22;11203;50.870;20.682;2022-09-09T01:35:52;16.30;99.90
21762;DHT22;11203;50.870;20.682;2022-09-09T01:38:31;16.30;99.90
21762;DHT22;11203;50.870;20.682;2022-09-09T01:40:58;16.30;99.90
21762;DHT22;11203;50.870;20.682;2022-09-09T01:43:25;16.40;99.90
21762;DHT22;11203;50.870;20.682;2022-09-09T01:45:55;16.40;99.90
21762;DHT22;11203;50.870;20.682;2022-09-09T01:48:23;16.40;99.90
21762;DHT22;11203;50.870;20.682;2022-09-09T01:50:51;16.40;99.90
21762;DHT22;11203;50.870;20.682;2022-09-09T01:53:18;16.40;99.90
21762;DHT22;11203;50.870;20.682;2022-09-09T01:56:00;16.50;99.90
21762;DHT22;11203;50.870;20.682;2022-09-09T02:01:50;16.50;99.90
21762;DHT22;11203;50.870;20.682;2022-09-09T02:04:41;16.50;99.90
21762;DHT22;11203;50.870;20.682;2022-09-09T02:10:32;16.60;99.90
21762;DHT22;11203;50.870;20.682;2022-09-09T02:13:15;16.60;99.90
21762;DHT22;11203;50.870;20.682;2022-09-09T02:15:52;16.60;99.90
21762;DHT22;11203;50.870;20.682;2022-09-09T02:18:40;16.60;99.90
21762;DHT22;11203;50.870;20.682;2022-09-09T02:21:17;16.50;99.90
21762;DHT22;11203;50.870;20.682;2022-09-09T02:23:46;16.50;99.90
21762;DHT22;11203;50.870;20.682;2022-09-09T02:26:15;16.50;99.90
21762;DHT22;11203;50.870;20.682;2022-09-09T02:28:47;16.60;99.90
21762;DHT22;11203;50.870;20.682;2022-09-09T02:31:17;16.60;99.90
21762;DHT22;11203;50.870;20.682;2022-09-09T02:33:51;16.60;99.90
21762;DHT22;11203;50.870;20.682;2022-09-09T02:36:20;16.60;99.90
21762;DHT22;11203;50.870;20.682;2022-09-09T02:38:47;16.60;99.90
21762;DHT22;11203;50.870;20.682;2022-09-09T02:41:20;16.60;99.90
21762;DHT22;11203;50.870;20.682;2022-09-09T02:43:50;16.50;99.90
21762;DHT22;11203;50.870;20.682;2022-09-09T02:49:43;16.60;99.90
21762;DHT22;11203;50.870;20.682;2022-09-09T02:58:06;16.50;99.90
21762;DHT22;11203;50.870;20.682;2022-09-09T03:00:34;16.60;99.90
21762;DHT22;11203;50.870;20.682;2022-09-09T03:03:05;16.60;99.90
21762;DHT22;11203;50.870;20.682;2022-09-09T03:05:32;16.50;99.90
21762;DHT22;11203;50.870;20.682;2022-09-09T03:07:58;16.60;99.90
21762;DHT22;11203;50.870;20.682;2022-09-09T03:10:25;16.60;99.90
21762;DHT22;11203;50.870;20.682;2022-09-09T03:12:50;16.50;99.90
21762;DHT22;11203;50.870;20.682;2022-09-09T03:15:17;16.50;99.90
21762;DHT22;11203;50.870;20.682;2022-09-09T03:17:43;16.50;99.90
21762;DHT22;11203;50.870;20.682;2022-09-09T03:20:09;16.50;99.90
21762;DHT22;11203;50.870;20.682;2022-09-09T03:22:35;16.40;99.90
21762;DHT22;11203;50.870;20.682;2022-09-09T03:25:02;16.40;99.90
21762;DHT22;11203;50.870;20.682;2022-09-09T03:27:31;16.40;99.90
21762;DHT22;11203;50.870;20.682;2022-09-09T03:29:57;16.30;99.90
21762;DHT22;11203;50.870;20.682;2022-09-09T03:32:23;16.30;99.90
21762;DHT22;11203;50.870;20.682;2022-09-09T03:34:51;16.30;99.90
21762;DHT22;11203;50.870;20.682;2022-09-09T03:37:18;16.30;99.90
21762;DHT22;11203;50.870;20.682;2022-09-09T03:39:45;16.30;99.90
21762;DHT22;11203;50.870;20.682;2022-09-09T03:42:14;16.30;99.90
21762;DHT22;11203;50.870;20.682;2022-09-09T03:44:45;16.30;99.90
21762;DHT22;11203;50.870;20.682;2022-09-09T03:47:20;16.30;99.90
21762;DHT22;11203;50.870;20.682;2022-09-09T03:49:47;16.20;99.90
21762;DHT22;11203;50.870;20.682;2022-09-09T03:52:16;16.30;99.90
21762;DHT22;11203;50.870;20.682;2022-09-09T03:54:43;16.30;99.90
21762;DHT22;11203;50.870;20.682;2022-09-09T03:57:10;16.30;99.90
21762;DHT22;11203;50.870;20.682;2022-09-09T03:59:36;16.30;99.90
21762;DHT22;11203;50.870;20.682;2022-09-09T04:02:03;16.30;99.90
21762;DHT22;11203;50.870;20.682;2022-09-09T04:04:29;16.30;99.90
21762;DHT22;11203;50.870;20.682;2022-09-09T04:06:55;16.30;99.90
21762;DHT22;11203;50.870;20.682;2022-09-09T04:09:22;16.30;99.90
21762;DHT22;11203;50.870;20.682;2022-09-09T04:11:52;16.20;99.90
21762;DHT22;11203;50.870;20.682;2022-09-09T04:14:19;16.20;99.90
21762;DHT22;11203;50.870;20.682;2022-09-09T04:16:46;16.20;99.90
21762;DHT22;11203;50.870;20.682;2022-09-09T04:19:13;16.10;99.90
21762;DHT22;11203;50.870;20.682;2022-09-09T04:21:42;16.20;99.90
21762;DHT22;11203;50.870;20.682;2022-09-09T04:24:09;16.20;99.90
21762;DHT22;11203;50.870;20.682;2022-09-09T04:26:38;16.10;99.90
21762;DHT22;11203;50.870;20.682;2022-09-09T04:29:04;16.10;99.90
21762;DHT22;11203;50.870;20.682;2022-09-09T04:31:33;16.10;99.90
21762;DHT22;11203;50.870;20.682;2022-09-09T04:33:59;16.10;99.90
21762;DHT22;11203;50.870;20.682;2022-09-09T04:36:32;16.10;99.90
21762;DHT22;11203;50.870;20.682;2022-09-09T04:39:01;16.10;99.90
21762;DHT22;11203;50.870;20.682;2022-09-09T04:41:28;16.00;99.90
21762;DHT22;11203;50.870;20.682;2022-09-09T04:43:54;16.00;99.90
21762;DHT22;11203;50.870;20.682;2022-09-09T04:46:21;16.00;99.90
21762;DHT22;11203;50.870;20.682;2022-09-09T04:48:49;16.00;99.90
21762;DHT22;11203;50.870;20.682;2022-09-09T04:51:15;16.00;99.90
21762;DHT22;11203;50.870;20.682;2022-09-09T04:53:41;16.00;99.90
21762;DHT22;11203;50.870;20.682;2022-09-09T04:56:15;15.90;99.90
21762;DHT22;11203;50.870;20.682;2022-09-09T04:58:42;15.90;99.90
21762;DHT22;11203;50.870;20.682;2022-09-09T05:03:38;15.90;99.90
21762;DHT22;11203;50.870;20.682;2022-09-09T05:06:08;16.00;99.90
21762;DHT22;11203;50.870;20.682;2022-09-09T05:08:41;16.00;99.90
21762;DHT22;11203;50.870;20.682;2022-09-09T05:11:37;15.90;99.90
21762;DHT22;11203;50.870;20.682;2022-09-09T05:14:04;16.00;99.90
21762;DHT22;11203;50.870;20.682;2022-09-09T05:16:31;16.00;99.90
21762;DHT22;11203;50.870;20.682;2022-09-09T05:18:57;16.00;99.90
21762;DHT22;11203;50.870;20.682;2022-09-09T05:21:24;16.00;99.90
21762;DHT22;11203;50.870;20.682;2022-09-09T05:23:52;16.00;99.90
21762;DHT22;11203;50.870;20.682;2022-09-09T05:26:20;16.00;99.90
21762;DHT22;11203;50.870;20.682;2022-09-09T05:28:47;16.00;99.90
21762;DHT22;11203;50.870;20.682;2022-09-09T05:31:14;16.00;99.90
21762;DHT22;11203;50.870;20.682;2022-09-09T05:33:43;16.00;99.90
21762;DHT22;11203;50.870;20.682;2022-09-09T05:36:13;16.00;99.90
21762;DHT22;11203;50.870;20.682;2022-09-09T05:38:41;16.00;99.90
21762;DHT22;11203;50.870;20.682;2022-09-09T05:41:08;16.10;99.90
21762;DHT22;11203;50.870;20.682;2022-09-09T05:43:35;16.10;99.90
21762;DHT22;11203;50.870;20.682;2022-09-09T05:46:11;16.10;99.90
21762;DHT22;11203;50.870;20.682;2022-09-09T05:48:42;16.10;99.90
21762;DHT22;11203;50.870;20.682;2022-09-09T05:51:13;16.20;99.90
21762;DHT22;11203;50.870;20.682;2022-09-09T05:53:45;16.20;99.90
21762;DHT22;11203;50.870;20.682;2022-09-09T05:56:14;16.20;99.90
21762;DHT22;11203;50.870;20.682;2022-09-09T05:58:45;16.30;99.90
21762;DHT22;11203;50.870;20.682;2022-09-09T06:01:30;16.20;99.90
21762;DHT22;11203;50.870;20.682;2022-09-09T06:03:58;16.20;99.90
21762;DHT22;11203;50.870;20.682;2022-09-09T06:06:27;16.20;99.90
21762;DHT22;11203;50.870;20.682;2022-09-09T06:08:58;16.30;99.90
21762;DHT22;11203;50.870;20.682;2022-09-09T06:11:27;16.40;99.90
21762;DHT22;11203;50.870;20.682;2022-09-09T06:13:57;16.40;99.90
21762;DHT22;11203;50.870;20.682;2022-09-09T06:16:25;16.30;99.90
21762;DHT22;11203;50.870;20.682;2022-09-09T06:18:53;16.40;99.90
21762;DHT22;11203;50.870;20.682;2022-09-09T06:21:26;16.30;99.90
21762;DHT22;11203;50.870;20.682;2022-09-09T06:23:54;16.30;99.90
21762;DHT22;11203;50.870;20.682;2022-09-09T06:26:23;16.40;99.90
21762;DHT22;11203;50.870;20.682;2022-09-09T06:28:53;16.40;99.90
21762;DHT22;11203;50.870;20.682;2022-09-09T06:31:21;16.30;99.90
21762;DHT22;11203;50.870;20.682;2022-09-09T06:33:53;16.50;99.90
21762;DHT22;11203;50.870;20.682;2022-09-09T06:36:23;16.50;99.90
21762;DHT22;11203;50.870;20.682;2022-09-09T06:38:52;16.50;99.90
21762;DHT22;11203;50.870;20.682;2022-09-09T06:41:20;16.50;99.90
21762;DHT22;11203;50.870;20.682;2022-09-09T06:43:49;16.40;99.90
21762;DHT22;11203;50.870;20.682;2022-09-09T06:46:20;16.50;99.90
21762;DHT22;11203;50.870;20.682;2022-09-09T06:48:49;16.60;99.90
21762;DHT22;11203;50.870;20.682;2022-09-09T06:51:17;16.60;99.90
21762;DHT22;11203;50.870;20.682;2022-09-09T06:53:46;16.60;99.90
21762;DHT22;11203;50.870;20.682;2022-09-09T06:58:55;16.60;99.90
21762;DHT22;11203;50.870;20.682;2022-09-09T07:01:26;16.60;99.90
21762;DHT22;11203;50.870;20.682;2022-09-09T07:03:55;16.50;99.90
21762;DHT22;11203;50.870;20.682;2022-09-09T07:06:28;16.60;99.90
21762;DHT22;11203;50.870;20.682;2022-09-09T07:08:59;16.70;99.90
21762;DHT22;11203;50.870;20.682;2022-09-09T07:11:29;16.80;99.90
21762;DHT22;11203;50.870;20.682;2022-09-09T07:14:00;16.90;99.90
21762;DHT22;11203;50.870;20.682;2022-09-09T07:16:27;17.00;99.90
21762;DHT22;11203;50.870;20.682;2022-09-09T07:18:55;17.00;99.90
21762;DHT22;11203;50.870;20.682;2022-09-09T07:21:25;16.90;99.90
21762;DHT22;11203;50.870;20.682;2022-09-09T07:23:54;16.90;99.90
21762;DHT22;11203;50.870;20.682;2022-09-09T07:26:24;16.90;99.90
21762;DHT22;11203;50.870;20.682;2022-09-09T07:28:55;16.80;99.90
21762;DHT22;11203;50.870;20.682;2022-09-09T07:31:29;16.80;99.90
21762;DHT22;11203;50.870;20.682;2022-09-09T07:33:57;16.90;99.90
21762;DHT22;11203;50.870;20.682;2022-09-09T07:36:30;17.00;99.90
21762;DHT22;11203;50.870;20.682;2022-09-09T07:39:00;16.90;99.90
21762;DHT22;11203;50.870;20.682;2022-09-09T07:41:34;17.10;99.90
21762;DHT22;11203;50.870;20.682;2022-09-09T07:44:10;17.10;99.90
21762;DHT22;11203;50.870;20.682;2022-09-09T07:46:39;17.20;99.90
21762;DHT22;11203;50.870;20.682;2022-09-09T07:49:06;17.20;99.90
21762;DHT22;11203;50.870;20.682;2022-09-09T07:51:35;17.20;99.90
21762;DHT22;11203;50.870;20.682;2022-09-09T07:54:05;17.30;99.90
21762;DHT22;11203;50.870;20.682;2022-09-09T07:56:33;17.10;99.90
21762;DHT22;11203;50.870;20.682;2022-09-09T07:58:59;17.10;99.90
21762;DHT22;11203;50.870;20.682;2022-09-09T08:01:29;17.40;99.90
21762;DHT22;11203;50.870;20.682;2022-09-09T08:04:02;17.40;99.90
21762;DHT22;11203;50.870;20.682;2022-09-09T08:06:32;17.50;99.90
21762;DHT22;11203;50.870;20.682;2022-09-09T08:09:00;17.40;99.90
21762;DHT22;11203;50.870;20.682;2022-09-09T08:11:28;17.60;99.90
21762;DHT22;11203;50.870;20.682;2022-09-09T08:13:55;17.50;99.90
21762;DHT22;11203;50.870;20.682;2022-09-09T08:16:24;17.70;99.90
21762;DHT22;11203;50.870;20.682;2022-09-09T08:18:52;17.70;99.90
21762;DHT22;11203;50.870;20.682;2022-09-09T08:21:23;17.70;99.90
21762;DHT22;11203;50.870;20.682;2022-09-09T08:23:52;17.60;99.90
21762;DHT22;11203;50.870;20.682;2022-09-09T08:26:22;17.70;99.90
21762;DHT22;11203;50.870;20.682;2022-09-09T08:28:51;17.80;99.90
21762;DHT22;11203;50.870;20.682;2022-09-09T08:31:26;17.70;99.90
21762;DHT22;11203;50.870;20.682;2022-09-09T08:33:55;17.80;99.90
21762;DHT22;11203;50.870;20.682;2022-09-09T08:36:24;17.70;99.90
21762;DHT22;11203;50.870;20.682;2022-09-09T08:38:55;17.90;99.90
21762;DHT22;11203;50.870;20.682;2022-09-09T08:44:54;17.90;99.90
21762;DHT22;11203;50.870;20.682;2022-09-09T08:53:03;18.00;99.90
21762;DHT22;11203;50.870;20.682;2022-09-09T08:55:51;18.20;99.90
21762;DHT22;11203;50.870;20.682;2022-09-09T08:58:33;18.10;99.90
21762;DHT22;11203;50.870;20.682;2022-09-09T09:09:20;18.50;99.90
21762;DHT22;11203;50.870;20.682;2022-09-09T09:11:55;18.70;99.90
21762;DHT22;11203;50.870;20.682;2022-09-09T09:14:28;18.70;99.90
21762;DHT22;11203;50.870;20.682;2022-09-09T09:17:01;18.90;99.90
21762;DHT22;11203;50.870;20.682;2022-09-09T09:19:30;18.80;99.90
21762;DHT22;11203;50.870;20.682;2022-09-09T09:22:11;19.00;99.90
21762;DHT22;11203;50.870;20.682;2022-09-09T09:24:56;18.90;99.90
21762;DHT22;11203;50.870;20.682;2022-09-09T09:30:44;19.00;99.90
21762;DHT22;11203;50.870;20.682;2022-09-09T09:36:07;18.80;99.90
21762;DHT22;11203;50.870;20.682;2022-09-09T09:38:35;18.70;99.90
21762;DHT22;11203;50.870;20.682;2022-09-09T09:41:02;18.80;99.90
21762;DHT22;11203;50.870;20.682;2022-09-09T09:43:31;18.90;99.90
21762;DHT22;11203;50.870;20.682;2022-09-09T09:46:03;19.10;99.90
21762;DHT22;11203;50.870;20.682;2022-09-09T09:48:30;19.30;99.90
21762;DHT22;11203;50.870;20.682;2022-09-09T09:50:58;19.20;99.90
21762;DHT22;11203;50.870;20.682;2022-09-09T09:53:29;19.40;99.90
21762;DHT22;11203;50.870;20.682;2022-09-09T09:55:58;19.20;99.90
21762;DHT22;11203;50.870;20.682;2022-09-09T10:01:29;19.50;99.90
21762;DHT22;11203;50.870;20.682;2022-09-09T10:04:18;19.40;99.90
21762;DHT22;11203;50.870;20.682;2022-09-09T10:06:46;19.40;99.90
21762;DHT22;11203;50.870;20.682;2022-09-09T10:09:30;19.50;99.90
21762;DHT22;11203;50.870;20.682;2022-09-09T10:20:31;19.60;1.00
21762;DHT22;11203;50.870;20.682;2022-09-09T10:26:47;19.70;1.00
21762;DHT22;11203;50.870;20.682;2022-09-09T10:29:24;19.70;99.90
21762;DHT22;11203;50.870;20.682;2022-09-09T10:37:29;20.20;1.00
21762;DHT22;11203;50.870;20.682;2022-09-09T10:40:39;20.20;1.00
21762;DHT22;11203;50.870;20.682;2022-09-09T10:47:33;20.20;99.90
21762;DHT22;11203;50.870;20.682;2022-09-09T10:55:56;20.40;57.90
21762;DHT22;11203;50.870;20.682;2022-09-09T10:58:30;20.40;60.30
21762;DHT22;11203;50.870;20.682;2022-09-09T11:01:11;20.40;1.00
21762;DHT22;11203;50.870;20.682;2022-09-09T11:03:42;20.60;1.00
21762;DHT22;11203;50.870;20.682;2022-09-09T11:06:19;20.70;1.00
21762;DHT22;11203;50.870;20.682;2022-09-09T11:08:47;20.70;1.00
21762;DHT22;11203;50.870;20.682;2022-09-09T11:14:34;20.60;1.00
21762;DHT22;11203;50.870;20.682;2022-09-09T11:17:10;20.70;1.00
21762;DHT22;11203;50.870;20.682;2022-09-09T11:19:41;20.80;1.00
21762;DHT22;11203;50.870;20.682;2022-09-09T11:22:35;20.80;1.00
21762;DHT22;11203;50.870;20.682;2022-09-09T11:25:06;20.90;1.00
21762;DHT22;11203;50.870;20.682;2022-09-09T11:41:35;21.20;99.90
21762;DHT22;11203;50.870;20.682;2022-09-09T11:44:19;21.30;99.90
21762;DHT22;11203;50.870;20.682;2022-09-09T11:46:54;21.20;99.90
21762;DHT22;11203;50.870;20.682;2022-09-09T11:49:41;21.30;99.90
21762;DHT22;11203;50.870;20.682;2022-09-09T11:52:25;21.40;9.10
21762;DHT22;11203;50.870;20.682;2022-09-09T11:55:33;21.40;1.00
21762;DHT22;11203;50.870;20.682;2022-09-09T11:58:02;21.50;1.00
21762;DHT22;11203;50.870;20.682;2022-09-09T12:03:40;21.70;99.90
21762;DHT22;11203;50.870;20.682;2022-09-09T12:06:29;21.80;1.00
21762;DHT22;11203;50.870;20.682;2022-09-09T12:09:19;21.70;99.90
21762;DHT22;11203;50.870;20.682;2022-09-09T12:14:42;22.00;1.00
21762;DHT22;11203;50.870;20.682;2022-09-09T12:17:26;22.00;99.90
21762;DHT22;11203;50.870;20.682;2022-09-09T12:20:03;22.10;99.90
21762;DHT22;11203;50.870;20.682;2022-09-09T12:23:12;22.00;1.00
21762;DHT22;11203;50.870;20.682;2022-09-09T12:26:06;21.90;1.00
21762;DHT22;11203;50.870;20.682;2022-09-09T12:29:03;21.90;99.90
21762;DHT22;11203;50.870;20.682;2022-09-09T12:37:36;21.90;99.90
21762;DHT22;11203;50.870;20.682;2022-09-09T12:42:48;22.00;56.90
21762;DHT22;11203;50.870;20.682;2022-09-09T12:45:20;21.80;1.00
21762;DHT22;11203;50.870;20.682;2022-09-09T12:50:24;21.70;1.00
21762;DHT22;11203;50.870;20.682;2022-09-09T12:52:55;21.80;1.00
21762;DHT22;11203;50.870;20.682;2022-09-09T12:55:28;21.70;99.90
21762;DHT22;11203;50.870;20.682;2022-09-09T12:57:56;21.70;1.00
21762;DHT22;11203;50.870;20.682;2022-09-09T13:00:25;21.70;6.50
21762;DHT22;11203;50.870;20.682;2022-09-09T13:02:53;21.70;1.00
21762;DHT22;11203;50.870;20.682;2022-09-09T13:05:26;21.60;99.90
21762;DHT22;11203;50.870;20.682;2022-09-09T13:08:04;21.60;1.00
21762;DHT22;11203;50.870;20.682;2022-09-09T13:10:41;21.60;99.90
21762;DHT22;11203;50.870;20.682;2022-09-09T13:13:22;21.40;81.40
21762;DHT22;11203;50.870;20.682;2022-09-09T13:15:57;21.40;1.00
21762;DHT22;11203;50.870;20.682;2022-09-09T13:18:28;21.40;1.00
21762;DHT22;11203;50.870;20.682;2022-09-09T13:20:56;21.40;1.00
21762;DHT22;11203;50.870;20.682;2022-09-09T13:23:35;21.50;99.90
21762;DHT22;11203;50.870;20.682;2022-09-09T13:26:19;21.50;73.10
21762;DHT22;11203;50.870;20.682;2022-09-09T13:28:48;21.60;99.90
21762;DHT22;11203;50.870;20.682;2022-09-09T13:31:28;21.60;99.90
21762;DHT22;11203;50.870;20.682;2022-09-09T13:33:58;21.70;1.00
21762;DHT22;11203;50.870;20.682;2022-09-09T13:36:30;21.60;1.00
21762;DHT22;11203;50.870;20.682;2022-09-09T13:39:03;21.50;1.00
21762;DHT22;11203;50.870;20.682;2022-09-09T13:41:49;21.50;5.80
21762;DHT22;11203;50.870;20.682;2022-09-09T13:44:31;21.50;1.00
21762;DHT22;11203;50.870;20.682;2022-09-09T13:47:06;21.40;1.00
21762;DHT22;11203;50.870;20.682;2022-09-09T13:49:44;21.60;1.00
21762;DHT22;11203;50.870;20.682;2022-09-09T13:52:16;21.50;1.00
21762;DHT22;11203;50.870;20.682;2022-09-09T13:54:51;21.50;1.00
21762;DHT22;11203;50.870;20.682;2022-09-09T13:57:25;21.60;1.00
21762;DHT22;11203;50.870;20.682;2022-09-09T13:59:52;21.60;1.00
21762;DHT22;11203;50.870;20.682;2022-09-09T14:02:20;21.60;1.00
21762;DHT22;11203;50.870;20.682;2022-09-09T14:04:48;21.60;1.00
21762;DHT22;11203;50.870;20.682;2022-09-09T14:07:17;21.70;1.00
21762;DHT22;11203;50.870;20.682;2022-09-09T14:09:44;21.80;1.00
21762;DHT22;11203;50.870;20.682;2022-09-09T14:12:15;21.80;1.00
21762;DHT22;11203;50.870;20.682;2022-09-09T14:14:42;21.90;1.00
21762;DHT22;11203;50.870;20.682;2022-09-09T14:17:09;21.80;1.00
21762;DHT22;11203;50.870;20.682;2022-09-09T14:19:35;22.00;97.00
21762;DHT22;11203;50.870;20.682;2022-09-09T14:22:02;22.00;1.00
21762;DHT22;11203;50.870;20.682;2022-09-09T14:24:29;22.10;99.90
21762;DHT22;11203;50.870;20.682;2022-09-09T14:26:56;22.10;99.90
21762;DHT22;11203;50.870;20.682;2022-09-09T14:29:21;22.10;99.90
21762;DHT22;11203;50.870;20.682;2022-09-09T14:31:48;22.00;18.80
21762;DHT22;11203;50.870;20.682;2022-09-09T14:34:13;22.10;99.90
21762;DHT22;11203;50.870;20.682;2022-09-09T14:36:40;22.00;1.00
21762;DHT22;11203;50.870;20.682;2022-09-09T14:39:07;22.00;1.00
21762;DHT22;11203;50.870;20.682;2022-09-09T14:41:34;21.90;99.90
21762;DHT22;11203;50.870;20.682;2022-09-09T14:44:00;21.90;1.00
21762;DHT22;11203;50.870;20.682;2022-09-09T14:46:26;21.80;1.00
21762;DHT22;11203;50.870;20.682;2022-09-09T14:48:52;21.80;1.00
21762;DHT22;11203;50.870;20.682;2022-09-09T14:51:20;21.70;1.00
21762;DHT22;11203;50.870;20.682;2022-09-09T14:53:51;21.50;1.00
21762;DHT22;11203;50.870;20.682;2022-09-09T14:56:19;21.50;99.90
21762;DHT22;11203;50.870;20.682;2022-09-09T14:58:49;21.40;99.90
21762;DHT22;11203;50.870;20.682;2022-09-09T15:01:18;21.50;1.00
21762;DHT22;11203;50.870;20.682;2022-09-09T15:03:53;21.50;1.00
21762;DHT22;11203;50.870;20.682;2022-09-09T15:06:22;21.40;99.90
21762;DHT22;11203;50.870;20.682;2022-09-09T15:08:50;21.30;99.90
21762;DHT22;11203;50.870;20.682;2022-09-09T15:11:18;21.20;1.00
21762;DHT22;11203;50.870;20.682;2022-09-09T15:13:46;21.20;1.00
21762;DHT22;11203;50.870;20.682;2022-09-09T15:16:17;21.10;1.00
21762;DHT22;11203;50.870;20.682;2022-09-09T15:18:45;21.10;99.90
21762;DHT22;11203;50.870;20.682;2022-09-09T15:21:17;21.10;1.00
21762;DHT22;11203;50.870;20.682;2022-09-09T15:23:47;21.00;1.00
21762;DHT22;11203;50.870;20.682;2022-09-09T15:26:15;21.00;99.90
21762;DHT22;11203;50.870;20.682;2022-09-09T15:28:42;21.00;61.90
21762;DHT22;11203;50.870;20.682;2022-09-09T15:31:11;20.90;16.00
21762;DHT22;11203;50.870;20.682;2022-09-09T15:33:40;20.90;1.00
21762;DHT22;11203;50.870;20.682;2022-09-09T15:36:24;20.80;1.00
21762;DHT22;11203;50.870;20.682;2022-09-09T15:38:51;20.80;1.00
21762;DHT22;11203;50.870;20.682;2022-09-09T15:41:19;20.70;1.00
21762;DHT22;11203;50.870;20.682;2022-09-09T15:43:48;20.60;1.00
21762;DHT22;11203;50.870;20.682;2022-09-09T15:46:46;20.30;99.90
21762;DHT22;11203;50.870;20.682;2022-09-09T15:51:45;20.20;99.90
21762;DHT22;11203;50.870;20.682;2022-09-09T15:54:17;20.10;1.00
21762;DHT22;11203;50.870;20.682;2022-09-09T15:56:47;20.20;1.00
21762;DHT22;11203;50.870;20.682;2022-09-09T15:59:16;20.10;99.90
21762;DHT22;11203;50.870;20.682;2022-09-09T16:01:43;20.00;1.00
21762;DHT22;11203;50.870;20.682;2022-09-09T16:04:10;19.90;99.90
21762;DHT22;11203;50.870;20.682;2022-09-09T16:06:36;19.80;1.00
21762;DHT22;11203;50.870;20.682;2022-09-09T16:09:04;19.70;1.00
21762;DHT22;11203;50.870;20.682;2022-09-09T16:11:34;19.70;1.00
21762;DHT22;11203;50.870;20.682;2022-09-09T16:14:02;19.60;1.00
21762;DHT22;11203;50.870;20.682;2022-09-09T16:16:30;19.40;1.00
21762;DHT22;11203;50.870;20.682;2022-09-09T16:18:59;19.30;1.00
21762;DHT22;11203;50.870;20.682;2022-09-09T16:21:29;19.30;1.00
21762;DHT22;11203;50.870;20.682;2022-09-09T16:24:01;19.10;99.90
21762;DHT22;11203;50.870;20.682;2022-09-09T16:26:30;19.20;99.90
21762;DHT22;11203;50.870;20.682;2022-09-09T16:28:59;19.10;1.00
21762;DHT22;11203;50.870;20.682;2022-09-09T16:31:28;19.10;1.00
21762;DHT22;11203;50.870;20.682;2022-09-09T16:33:55;19.10;99.90
21762;DHT22;11203;50.870;20.682;2022-09-09T16:36:23;19.00;99.90
21762;DHT22;11203;50.870;20.682;2022-09-09T16:38:54;18.90;99.90
21762;DHT22;11203;50.870;20.682;2022-09-09T16:41:23;18.80;1.00
21762;DHT22;11203;50.870;20.682;2022-09-09T16:43:54;18.70;99.90
21762;DHT22;11203;50.870;20.682;2022-09-09T16:46:22;18.70;1.00
21762;DHT22;11203;50.870;20.682;2022-09-09T16:48:50;18.60;1.00
21762;DHT22;11203;50.870;20.682;2022-09-09T16:51:19;18.60;1.00
21762;DHT22;11203;50.870;20.682;2022-09-09T16:53:47;18.60;1.00
21762;DHT22;11203;50.870;20.682;2022-09-09T16:56:15;18.40;1.00
21762;DHT22;11203;50.870;20.682;2022-09-09T16:58:48;18.30;1.00
21762;DHT22;11203;50.870;20.682;2022-09-09T17:01:22;18.10;1.00
21762;DHT22;11203;50.870;20.682;2022-09-09T17:04:02;18.10;99.90
21762;DHT22;11203;50.870;20.682;2022-09-09T17:06:30;18.20;3.30
21762;DHT22;11203;50.870;20.682;2022-09-09T17:09:08;18.00;1.00
21762;DHT22;11203;50.870;20.682;2022-09-09T17:11:37;17.90;1.00
21762;DHT22;11203;50.870;20.682;2022-09-09T17:14:05;17.90;29.30
21762;DHT22;11203;50.870;20.682;2022-09-09T17:16:33;17.70;97.10
21762;DHT22;11203;50.870;20.682;2022-09-09T17:19:00;17.70;99.90
21762;DHT22;11203;50.870;20.682;2022-09-09T17:21:27;17.60;99.90
21762;DHT22;11203;50.870;20.682;2022-09-09T17:23:55;17.60;1.00
21762;DHT22;11203;50.870;20.682;2022-09-09T17:26:24;17.50;99.90
21762;DHT22;11203;50.870;20.682;2022-09-09T17:28:53;17.50;99.90
21762;DHT22;11203;50.870;20.682;2022-09-09T17:31:20;17.50;99.90
21762;DHT22;11203;50.870;20.682;2022-09-09T17:33:50;17.40;99.90
21762;DHT22;11203;50.870;20.682;2022-09-09T17:36:27;17.40;99.90
21762;DHT22;11203;50.870;20.682;2022-09-09T17:38:58;17.30;99.90
21762;DHT22;11203;50.870;20.682;2022-09-09T17:41:36;17.20;99.90
21762;DHT22;11203;50.870;20.682;2022-09-09T17:44:04;17.10;99.90
21762;DHT22;11203;50.870;20.682;2022-09-09T17:46:36;17.10;99.90
21762;DHT22;11203;50.870;20.682;2022-09-09T17:49:06;17.10;99.90
21762;DHT22;11203;50.870;20.682;2022-09-09T17:51:37;17.00;99.90
21762;DHT22;11203;50.870;20.682;2022-09-09T17:54:09;17.00;99.90
21762;DHT22;11203;50.870;20.682;2022-09-09T17:56:40;16.90;99.90
21762;DHT22;11203;50.870;20.682;2022-09-09T17:59:08;16.80;99.90
21762;DHT22;11203;50.870;20.682;2022-09-09T18:01:37;16.90;99.90
21762;DHT22;11203;50.870;20.682;2022-09-09T18:04:07;16.70;99.90
21762;DHT22;11203;50.870;20.682;2022-09-09T18:06:39;16.70;99.90
21762;DHT22;11203;50.870;20.682;2022-09-09T18:09:17;16.70;99.90
21762;DHT22;11203;50.870;20.682;2022-09-09T18:11:50;16.60;99.90